Data for 08/16/2009

Time Sea-Level Adjusted Pressure Absolute Pressure Temperature Relative Humidity Dew Point   
(mb) (inHg) (mb) (inHg) (C) (F) (%) (C) (F)
00:05 1021 30.15 850 25.1 10.5 51 59 2.9 37.3
00:10 1021 30.15 850 25.1 10.6 51 60 3.3 37.9
00:15 1021 30.15 850 25.1 10.5 50.8 61 3.3 37.9
00:20 1021 30.15 850 25.1 10.4 50.7 61 3.1 37.6
00:25 1021 30.15 850 25.1 10.4 50.7 61 3.2 37.7
00:30 1021 30.15 850 25.1 10.3 50.5 62 3.3 37.9
00:35 1021 30.15 850 25.1 10.2 50.3 62 3.3 38
00:40 1021 30.15 850 25.1 10.2 50.3 61 3.1 37.6
00:45 1021 30.15 850 25.1 10.2 50.4 61 3.1 37.6
00:50 1021 30.15 850 25.1 10.2 50.3 62 3.2 37.8
00:55 1021 30.15 850 25.1 10.2 50.4 61 3.1 37.6
01:00 1021 30.15 850 25.1 10.2 50.4 61 3.1 37.6
01:05 1021 30.15 850 25.1 10.2 50.4 62 3.2 37.7
01:10 1021 30.15 850 25.1 10.2 50.3 62 3.4 38
01:15 1021 30.15 850 25.1 10 50 63 3.3 37.9
01:20 1021 30.15 850 25.1 9.9 49.8 63 3.2 37.8
01:25 1021 30.15 850 25.1 9.9 49.8 63 3.3 37.9
01:30 1021 30.15 850 25.1 9.9 49.7 64 3.3 38
01:35 1021 30.15 850 25.1 9.8 49.7 64 3.4 38.2
01:40 1021 30.15 850 25.1 9.8 49.7 65 3.5 38.3
01:45 1021 30.15 850 25.1 9.8 49.6 65 3.5 38.3
01:50 1021 30.15 850 25.1 9.7 49.4 65 3.5 38.3
01:55 1021 30.15 850 25.1 9.7 49.4 66 3.6 38.5
02:00 1020 30.12 850 25.1 9.5 49.1 68 4 39.2
02:05 1020 30.12 850 25.1 9.4 48.9 67 3.6 38.5
02:10 1020 30.12 850 25.1 9.5 49.1 67 3.6 38.6
02:15 1020 30.12 850 25.1 9.6 49.2 67 3.7 38.7
02:20 1020 30.12 850 25.1 9.6 49.3 67 3.8 38.8
02:25 1020 30.12 850 25.1 9.6 49.3 67 3.8 38.9
02:30 1020 30.12 850 25.1 9.6 49.2 67 3.8 38.8
02:35 1020 30.12 849 25.07 9.5 49.1 68 4 39.1
02:40 1020 30.12 849 25.07 9.4 49 69 4 39.2
02:45 1020 30.12 849 25.07 9.4 48.9 69 4.1 39.5
02:50 1020 30.12 849 25.07 9.4 49 70 4.2 39.6
02:55 1020 30.12 850 25.1 9.3 48.8 70 4.1 39.5
03:00 1020 30.12 849 25.07 9.2 48.6 70 4 39.2
03:05 1020 30.12 849 25.07 9.1 48.4 71 4.2 39.6
03:10 1020 30.12 849 25.07 9.1 48.5 70 3.9 39.1
03:15 1020 30.12 850 25.1 9.2 48.5 69 3.9 39
03:20 1020 30.12 850 25.1 9.2 48.6 69 4 39.1
03:25 1020 30.12 850 25.1 9.3 48.8 70 4.2 39.5
03:30 1020 30.12 850 25.1 9.2 48.6 69 3.9 39
03:35 1020 30.12 850 25.1 9.2 48.6 68 3.7 38.6
03:40 1020 30.12 850 25.1 9.2 48.6 68 3.7 38.7
03:45 1020 30.12 850 25.1 9.2 48.6 68 3.6 38.4
03:50 1020 30.12 850 25.1 9.2 48.5 70 4 39.3
03:55 1021 30.15 850 25.1 9.1 48.3 70 3.8 38.9
04:00 1021 30.15 850 25.1 9.1 48.3 69 3.7 38.7
04:05 1021 30.15 850 25.1 9.1 48.4 69 3.7 38.7
04:10 1021 30.15 850 25.1 9 48.2 70 3.8 38.8
04:15 1021 30.15 850 25.1 9 48.1 70 3.8 38.8
04:20 1021 30.15 850 25.1 8.9 48.1 68 3.4 38.2
04:25 1021 30.15 850 25.1 8.9 48 68 3.4 38.1
04:30 1021 30.15 850 25.1 8.8 47.9 68 3.2 37.8
04:35 1021 30.15 850 25.1 8.8 47.9 68 3.2 37.8
04:40 1021 30.15 850 25.1 8.9 48 67 3.1 37.5
04:45 1021 30.15 850 25.1 8.9 47.9 67 3 37.5
04:50 1021 30.15 850 25.1 8.9 47.9 67 3.1 37.6
04:55 1021 30.15 850 25.1 8.8 47.9 69 3.5 38.3
05:00 1021 30.15 850 25.1 8.6 47.4 71 3.6 38.5
05:05 1021 30.15 850 25.1 8.4 47.1 75 4.1 39.4
05:10 1021 30.15 850 25.1 8.1 46.6 74 3.9 38.9
05:15 1021 30.15 850 25.1 8.1 46.6 72 3.4 38.1
05:20 1021 30.15 850 25.1 8.2 46.7 72 3.5 38.4
05:25 1021 30.15 850 25.1 8.1 46.5 71 3.1 37.6
05:30 1021 30.15 850 25.1 8.2 46.7 69 2.9 37.3
05:35 1021 30.15 850 25.1 8.2 46.8 68 2.6 36.8
05:40 1021 30.15 850 25.1 8.3 47 66 2.4 36.4
05:45 1021 30.15 850 25.1 8.4 47.1 66 2.5 36.5
05:50 1021 30.15 850 25.1 8.5 47.4 64 2.2 36
05:55 1021 30.15 850 25.1 8.7 47.7 63 2.1 35.8
06:00 1021 30.15 850 25.1 8.8 47.8 63 2.2 36
06:05 1021 30.15 850 25.1 8.8 47.8 64 2.5 36.4
06:10 1021 30.15 850 25.1 8.7 47.7 65 2.5 36.4
06:15 1021 30.15 850 25.1 8.6 47.5 66 2.7 36.9
06:20 1021 30.15 850 25.1 8.5 47.3 67 2.7 36.9
06:25 1021 30.15 850 25.1 8.3 47 68 2.8 37
06:30 1021 30.15 850 25.1 8.1 46.7 69 2.9 37.2
06:35 1021 30.15 850 25.1 8 46.4 71 3 37.4
06:40 1021 30.15 850 25.1 7.9 46.3 72 3.2 37.7
06:45 1021 30.15 850 25.1 7.8 46.1 72 3.1 37.6
06:50 1021 30.15 850 25.1 7.9 46.2 71 2.9 37.3
06:55 1021 30.15 850 25.1 8.1 46.6 71 3.3 37.9
07:00 1021 30.15 850 25.1 8.4 47.1 69 3 37.4
07:05 1021 30.15 850 25.1 8.5 47.3 68 3.1 37.5
07:10 1021 30.15 850 25.1 8.7 47.6 71 3.6 38.5
07:15 1021 30.15 850 25.1 8.5 47.2 72 3.7 38.6
07:20 1021 30.15 850 25.1 8.5 47.2 71 3.5 38.3
07:25 1021 30.15 850 25.1 9 48.3 68 3.6 38.4
07:30 1021 30.15 850 25.1 9.4 48.9 67 3.6 38.5
07:35 1021 30.15 850 25.1 9.5 49.1 67 3.6 38.6
07:40 1021 30.15 850 25.1 9.4 48.8 66 3.4 38.2
07:45 1021 30.15 850 25.1 10 50 63 3.2 37.8
07:50 1021 30.15 850 25.1 10.4 50.7 61 3.2 37.8
07:55 1021 30.15 850 25.1 10 50 62 3.1 37.6
08:00 1021 30.15 850 25.1 9.8 49.6 64 3.3 38
08:05 1021 30.15 850 25.1 9.8 49.7 63 3.1 37.5
08:10 1021 30.15 850 25.1 9.8 49.6 64 3.3 38
08:15 1021 30.15 850 25.1 9.6 49.2 65 3.4 38
08:20 1021 30.15 850 25.1 9.7 49.4 64 3.2 37.8
08:25 1021 30.15 850 25.1 9.5 49.1 65 3.3 38
08:30 1021 30.15 850 25.1 9.4 49 66 3.3 38
08:35 1021 30.15 850 25.1 9.5 49.1 65 3.3 38
08:40 1021 30.15 850 25.1 9.8 49.7 61 2.8 37
08:45 1021 30.15 850 25.1 10.1 50.1 61 3 37.4
08:50 1021 30.15 850 25.1 10.2 50.4 60 2.8 37
08:55 1021 30.15 850 25.1 10 50 62 3.1 37.6
09:00 1021 30.15 850 25.1 10.1 50.2 60 2.8 37
09:05 1021 30.15 850 25.1 10.5 50.9 58 2.7 36.9
09:10 1021 30.15 850 25.1 10.9 51.7 58 3.1 37.5
09:15 1021 30.15 850 25.1 11 51.9 58 3.2 37.8
09:20 1021 30.15 850 25.1 10.7 51.2 59 3 37.3
09:25 1021 30.15 850 25.1 10.8 51.4 59 3 37.5
09:30 1021 30.15 850 25.1 10.5 50.9 62 3.5 38.4
09:35 1021 30.15 850 25.1 10.2 50.4 61 3.1 37.6
09:40 1021 30.15 850 25.1 10.6 51 65 4.2 39.6
09:45 1021 30.15 850 25.1 10.1 50.1 65 3.9 39
09:50 1021 30.15 850 25.1 9.9 49.8 67 4 39.3
09:55 1021 30.15 850 25.1 10.2 50.3 68 4.6 40.2
10:00 1021 30.15 850 25.1 10.1 50.2 65 3.9 39
10:05 1021 30.15 850 25.1 10.2 50.3 62 3.2 37.7
10:10 1021 30.15 850 25.1 10.2 50.3 63 3.4 38.1
10:15 1021 30.15 850 25.1 10.1 50.2 61 3 37.3
10:20 1021 30.15 850 25.1 10.9 51.5 55 2.3 36.1
10:25 1021 30.15 850 25.1 10.8 51.4 58 2.8 37
10:30 1021 30.15 851 25.13 10.7 51.2 59 3.1 37.6
10:35 1021 30.15 851 25.13 10.8 51.5 57 2.8 37
10:40 1021 30.15 851 25.13 11.3 52.3 54 2.4 36.4
10:45 1021 30.15 851 25.13 11.6 52.9 54 2.8 37
10:50 1021 30.15 851 25.13 11.5 52.6 55 2.8 37.1
10:55 1021 30.15 851 25.13 11.8 53.3 53 2.7 36.9
11:00 1021 30.15 851 25.13 12.3 54.2 54 3.2 37.8
11:05 1021 30.15 851 25.13 12.5 54.6 50 2.5 36.4
11:10 1021 30.15 851 25.13 12.6 54.6 50 2.5 36.5
11:15 1021 30.15 851 25.13 12.8 55 50 2.6 36.7
11:20 1021 30.15 851 25.13 13.3 56 47 2.4 36.3
11:25 1021 30.15 851 25.13 12.9 55.3 49 2.5 36.5
11:30 1021 30.15 851 25.13 13.7 56.7 47 2.8 37.1
11:35 1021 30.15 851 25.13 14.4 58 47 3.4 38.1
11:40 1021 30.15 851 25.13 14.2 57.6 45 2.6 36.7
11:45 1021 30.15 851 25.13 14.2 57.6 46 3 37.3
11:50 1022 30.18 851 25.13 13.8 56.9 48 3 37.4
11:55 1021 30.15 851 25.13 13.6 56.5 48 3 37.3
12:00 1022 30.18 851 25.13 13.3 55.9 49 2.9 37.2
12:05 1022 30.18 851 25.13 13.1 55.6 50 2.9 37.3
12:10 1022 30.18 851 25.13 12.8 55.1 50 2.8 37
12:15 1022 30.18 851 25.13 13.1 55.5 50 2.9 37.3
12:20 1022 30.18 851 25.13 13.3 56 50 3.2 37.7
12:25 1022 30.18 851 25.13 13.7 56.6 48 3 37.4
12:30 1022 30.18 851 25.13 13.6 56.5 49 3.3 37.9
12:35 1022 30.18 851 25.13 13.7 56.7 47 2.8 37.1
12:40 1022 30.18 851 25.13 13.9 57 47 3 37.4
12:45 1022 30.18 851 25.13 14.1 57.4 46 2.9 37.2
12:50 1022 30.18 851 25.13 14.2 57.6 48 3.6 38.4
12:55 1021 30.15 851 25.13 14 57.2 50 3.7 38.7
13:00 1021 30.15 851 25.13 13.9 57 54 4.8 40.7
13:05 1021 30.15 851 25.13 13.6 56.5 52 4.1 39.4
13:10 1022 30.18 851 25.13 13.6 56.4 51 3.6 38.5
13:15 1022 30.18 851 25.13 13.9 56.9 51 3.9 39
13:20 1021 30.15 851 25.13 13.9 57 51 4.1 39.4
13:25 1021 30.15 851 25.13 14 57.2 50 3.8 38.9
13:30 1021 30.15 851 25.13 14.5 58.1 48 3.6 38.5
13:35 1021 30.15 851 25.13 15.2 59.3 47 4 39.3
13:40 1021 30.15 851 25.13 15.4 59.7 46 3.9 39
13:45 1021 30.15 851 25.13 14.5 58 46 3.1 37.5
13:50 1021 30.15 851 25.13 15 59 44 3.1 37.5
13:55 1021 30.15 851 25.13 14.5 58.2 47 3.4 38.2
14:00 1021 30.15 851 25.13 13.4 56.1 50 3.1 37.7
14:05 1021 30.15 851 25.13 14.3 57.7 45 2.7 36.9
14:10 1021 30.15 851 25.13 15.4 59.7 43 2.9 37.2
14:15 1021 30.15 851 25.13 15.5 59.9 43 3.1 37.6
14:20 1021 30.15 851 25.13 15.1 59.1 43 2.7 36.9
14:25 1021 30.15 850 25.1 15.7 60.2 43 3.1 37.6
14:30 1021 30.15 850 25.1 16.9 62.4 40 3.2 37.7
14:35 1021 30.15 850 25.1 16.4 61.5 41 3.3 37.9
14:40 1021 30.15 850 25.1 15.9 60.7 41 2.8 37.1
14:45 1021 30.15 850 25.1 14.9 58.8 44 3 37.4
14:50 1021 30.15 850 25.1 14.8 58.6 44 2.6 36.8
14:55 1021 30.15 850 25.1 15 59.1 42 2.4 36.3
15:00 1021 30.15 850 25.1 15.3 59.6 42 2.6 36.8
15:05 1021 30.15 850 25.1 15.3 59.5 44 3.1 37.6
15:10 1021 30.15 851 25.13 13.8 56.9 63 6.9 44.4
15:15 1021 30.15 851 25.13 12.2 54 64 5.6 42.1
15:20 1021 30.15 851 25.13 12 53.6 62 5.1 41.2
15:25 1021 30.15 850 25.1 12.4 54.3 59 4.7 40.5
15:30 1021 30.15 850 25.1 12.7 54.9 58 4.8 40.6
15:35 1021 30.15 851 25.13 12.4 54.3 57 4.2 39.5
15:40 1021 30.15 851 25.13 12.9 55.2 57 4.7 40.5
15:45 1021 30.15 851 25.13 13.3 56 53 4 39.1
15:50 1021 30.15 851 25.13 13.4 56.1 51 3.5 38.3
15:55 1021 30.15 851 25.13 14.2 57.5 49 3.7 38.6
16:00 1021 30.15 851 25.13 14.9 58.7 49 4.2 39.6
16:05 1021 30.15 850 25.1 15.2 59.4 45 3.5 38.3
16:10 1021 30.15 850 25.1 16 60.9 45 4.3 39.8
16:15 1021 30.15 850 25.1 15.6 60.1 44 3.4 38.2
16:20 1021 30.15 850 25.1 15.4 59.7 43 3.1 37.6
16:25 1021 30.15 850 25.1 15.8 60.4 43 3.3 37.9
16:30 1021 30.15 850 25.1 15.3 59.5 44 3.3 37.9
16:35 1021 30.15 850 25.1 16 60.7 42 3.1 37.5
16:40 1021 30.15 850 25.1 16.7 62 40 3.1 37.6
16:45 1021 30.15 850 25.1 16.9 62.5 39 2.8 37.1
16:50 1021 30.15 850 25.1 16.7 62.1 39 2.9 37.3
16:55 1021 30.15 850 25.1 16.8 62.2 41 3.6 38.5
17:00 1021 30.15 851 25.13 17.1 62.7 39 3.3 37.9
17:05 1021 30.15 851 25.13 16.9 62.3 40 3.3 37.9
17:10 1021 30.15 851 25.13 16.8 62.2 40 3.2 37.8
17:15 1021 30.15 851 25.13 16.6 61.9 41 3.2 37.8
17:20 1021 30.15 851 25.13 16.7 62.1 41 3.6 38.5
17:25 1022 30.18 851 25.13 16.1 61 45 4.1 39.4
17:30 1022 30.18 851 25.13 15 59.1 47 3.9 39.1
17:35 1022 30.18 851 25.13 14.9 58.8 48 4 39.2
17:40 1022 30.18 851 25.13 15 58.9 46 3.6 38.5
17:45 1021 30.15 851 25.13 15.1 59.2 47 3.8 38.9
17:50 1022 30.18 851 25.13 15.6 60.2 45 4 39.1
17:55 1022 30.18 851 25.13 15.4 59.8 47 4.1 39.4
18:00 1022 30.18 851 25.13 15.5 60 44 3.5 38.2
18:05 1022 30.18 851 25.13 15.9 60.7 45 4.1 39.3
18:10 1022 30.18 851 25.13 15.6 60.2 46 4.2 39.6
18:15 1022 30.18 851 25.13 15.4 59.8 46 3.9 39.1
18:20 1022 30.18 851 25.13 15.3 59.5 47 4 39.2
18:25 1022 30.18 851 25.13 14.9 58.9 48 4.2 39.6
18:30 1022 30.18 851 25.13 14.9 58.7 46 3.5 38.2
18:35 1022 30.18 851 25.13 15 59 48 4.2 39.6
18:40 1022 30.18 851 25.13 14.9 58.8 48 4.2 39.5
18:45 1022 30.18 851 25.13 14.7 58.4 48 3.9 39.1
18:50 1022 30.18 851 25.13 14.5 58.1 49 4 39.2
18:55 1022 30.18 851 25.13 14.4 58 51 4.5 40.2
19:00 1022 30.18 851 25.13 14.4 57.9 52 4.9 40.7
19:05 1022 30.18 851 25.13 14.1 57.4 53 4.9 40.8
19:10 1022 30.18 851 25.13 13.9 57 54 4.9 40.9
19:15 1022 30.18 852 25.16 13.7 56.6 57 5.3 41.6
19:20 1023 30.21 852 25.16 13 55.4 61 5.7 42.3
19:25 1023 30.21 852 25.16 12.1 53.7 65 5.8 42.5
19:30 1023 30.21 852 25.16 11.3 52.4 69 5.9 42.6
19:35 1023 30.21 852 25.16 10.9 51.6 73 6.2 43.2
19:40 1023 30.21 852 25.16 10.7 51.2 77 6.8 44.2
19:45 1023 30.21 852 25.16 10.5 50.8 80 7.3 45.1
19:50 1023 30.21 852 25.16 10.1 50.1 83 7.4 45.3
19:55 1023 30.21 852 25.16 9.5 49.2 84 7 44.7
20:00 1023 30.21 853 25.19 9.5 49 83 6.8 44.3
20:05 1023 30.21 853 25.19 9.4 48.9 84 6.9 44.4
20:10 1023 30.21 853 25.19 9.1 48.4 85 6.8 44.2
20:15 1023 30.21 853 25.19 9.1 48.3 84 6.6 43.9
20:20 1023 30.21 853 25.19 9 48.1 84 6.3 43.4
20:25 1023 30.21 853 25.19 9 48.2 83 6.2 43.2
20:30 1024 30.24 853 25.19 9.2 48.5 82 6.2 43.1
20:35 1024 30.24 853 25.19 9.2 48.6 81 6.1 42.9
20:40 1024 30.24 853 25.19 9.4 49 79 6.1 42.9
20:45 1024 30.24 853 25.19 9.4 48.9 82 6.4 43.6
20:50 1024 30.24 853 25.19 9.2 48.5 82 6.3 43.3
20:55 1023 30.21 853 25.19 9.1 48.5 83 6.4 43.6
21:00 1023 30.21 853 25.19 9.2 48.6 81 6.1 43
21:05 1023 30.21 853 25.19 9.2 48.5 81 6.1 43
21:10 1023 30.21 853 25.19 9 48.1 81 5.9 42.5
21:15 1024 30.24 853 25.19 8.9 48 81 5.8 42.4
21:20 1024 30.24 853 25.19 8.9 48 80 5.6 42.1
21:25 1024 30.24 853 25.19 8.8 47.8 80 5.6 42.1
21:30 1024 30.24 853 25.19 8.7 47.6 80 5.5 41.9
21:35 1024 30.24 853 25.19 8.7 47.6 79 5.2 41.3
21:40 1024 30.24 853 25.19 8.7 47.7 79 5.3 41.5
21:45 1024 30.24 853 25.19 8.9 48.1 76 5 41.1
21:50 1024 30.24 853 25.19 8.9 48.1 76 5 41
21:55 1024 30.24 853 25.19 8.8 47.9 77 5 41.1
22:00 1024 30.24 853 25.19 8.6 47.4 79 5.1 41.3
22:05 1024 30.24 853 25.19 8.3 46.9 80 5.1 41.1
22:10 1024 30.24 853 25.19 8.2 46.7 80 5 41
22:15 1024 30.24 853 25.19 8.1 46.5 81 5 41
22:20 1024 30.24 853 25.19 8 46.4 79 4.5 40.2
22:25 1024 30.24 853 25.19 8.2 46.7 79 4.7 40.5
22:30 1024 30.24 853 25.19 8.3 46.9 78 4.6 40.3
22:35 1024 30.24 853 25.19 8.3 46.9 78 4.6 40.3
22:40 1024 30.24 853 25.19 8.4 47.1 78 4.7 40.5
22:45 1024 30.24 853 25.19 8.6 47.4 75 4.4 40
22:50 1024 30.24 853 25.19 8.7 47.7 75 4.5 40.1
22:55 1024 30.24 853 25.19 8.8 47.8 78 5.1 41.2
23:00 1024 30.24 853 25.19 8.6 47.4 80 5.2 41.4
23:05 1024 30.24 853 25.19 8.2 46.8 82 5.3 41.6
23:10 1024 30.24 853 25.19 7.9 46.2 83 5.2 41.4
23:15 1024 30.24 853 25.19 7.9 46.1 82 5.1 41.1
23:20 1024 30.24 853 25.19 7.8 46.1 81 4.8 40.6
23:25 1024 30.24 853 25.19 7.7 45.9 81 4.6 40.3
23:30 1024 30.24 853 25.19 7.6 45.6 83 4.9 40.8
23:35 1024 30.24 853 25.19 7.1 44.7 89 5.3 41.6
23:40 1024 30.24 853 25.19 6.7 44.1 89 5.1 41.1
23:45 1024 30.24 853 25.19 6.7 44.1 88 4.9 40.8
23:50 1024 30.24 853 25.19 6.8 44.3 86 4.6 40.3
23:55 1024 30.24 853 25.19 7.1 44.7 84 4.5 40.1
24:00 1024 30.24 853 25.19 7.2 44.9 83 4.4 40